sensor_id;sensor_type;location;lat;lon;timestamp;temperature;humidity
51021;DHT22;38907;45.562;8.856;2023-04-03T00:00:29;10.30;99.90
51021;DHT22;38907;45.562;8.856;2023-04-03T00:05:33;10.30;99.90
51021;DHT22;38907;45.562;8.856;2023-04-03T00:10:36;10.20;99.90
51021;DHT22;38907;45.562;8.856;2023-04-03T00:15:38;10.40;99.90
51021;DHT22;38907;45.562;8.856;2023-04-03T00:20:42;10.40;99.90
51021;DHT22;38907;45.562;8.856;2023-04-03T00:25:44;10.30;99.90
51021;DHT22;38907;45.562;8.856;2023-04-03T00:30:48;10.00;99.90
51021;DHT22;38907;45.562;8.856;2023-04-03T00:35:51;10.00;99.90
51021;DHT22;38907;45.562;8.856;2023-04-03T00:40:53;9.50;99.90
51021;DHT22;38907;45.562;8.856;2023-04-03T00:45:56;8.90;99.90
51021;DHT22;38907;45.562;8.856;2023-04-03T00:51:00;8.80;99.90
51021;DHT22;38907;45.562;8.856;2023-04-03T00:56:06;9.00;99.90
51021;DHT22;38907;45.562;8.856;2023-04-03T01:01:15;8.90;99.90
51021;DHT22;38907;45.562;8.856;2023-04-03T01:06:23;9.10;99.90
51021;DHT22;38907;45.562;8.856;2023-04-03T01:11:26;9.20;99.90
51021;DHT22;38907;45.562;8.856;2023-04-03T01:16:29;9.20;99.90
51021;DHT22;38907;45.562;8.856;2023-04-03T01:22:03;9.40;99.90
51021;DHT22;38907;45.562;8.856;2023-04-03T01:27:11;9.40;99.90
51021;DHT22;38907;45.562;8.856;2023-04-03T01:32:14;9.40;99.90
51021;DHT22;38907;45.562;8.856;2023-04-03T01:37:16;9.20;99.90
51021;DHT22;38907;45.562;8.856;2023-04-03T01:42:18;9.20;99.90
51021;DHT22;38907;45.562;8.856;2023-04-03T01:47:21;9.40;99.90
51021;DHT22;38907;45.562;8.856;2023-04-03T01:52:24;9.40;99.90
51021;DHT22;38907;45.562;8.856;2023-04-03T01:57:25;9.50;99.90
51021;DHT22;38907;45.562;8.856;2023-04-03T02:02:29;9.60;99.90
51021;DHT22;38907;45.562;8.856;2023-04-03T02:07:31;9.80;99.90
51021;DHT22;38907;45.562;8.856;2023-04-03T02:12:33;9.70;99.90
51021;DHT22;38907;45.562;8.856;2023-04-03T02:17:36;9.50;99.90
51021;DHT22;38907;45.562;8.856;2023-04-03T02:22:38;9.40;99.90
51021;DHT22;38907;45.562;8.856;2023-04-03T02:27:40;9.40;99.90
51021;DHT22;38907;45.562;8.856;2023-04-03T02:32:44;9.20;99.90
51021;DHT22;38907;45.562;8.856;2023-04-03T02:37:46;9.10;99.90
51021;DHT22;38907;45.562;8.856;2023-04-03T02:42:47;9.10;99.90
51021;DHT22;38907;45.562;8.856;2023-04-03T02:47:51;9.00;99.90
51021;DHT22;38907;45.562;8.856;2023-04-03T02:52:53;9.20;99.90
51021;DHT22;38907;45.562;8.856;2023-04-03T02:57:55;9.20;99.90
51021;DHT22;38907;45.562;8.856;2023-04-03T03:02:58;9.10;99.90
51021;DHT22;38907;45.562;8.856;2023-04-03T03:08:00;9.10;99.90
51021;DHT22;38907;45.562;8.856;2023-04-03T03:13:02;9.20;99.90
51021;DHT22;38907;45.562;8.856;2023-04-03T03:18:05;9.10;99.90
51021;DHT22;38907;45.562;8.856;2023-04-03T03:23:07;9.40;99.90
51021;DHT22;38907;45.562;8.856;2023-04-03T03:28:08;9.40;99.90
51021;DHT22;38907;45.562;8.856;2023-04-03T03:33:13;9.70;99.90
51021;DHT22;38907;45.562;8.856;2023-04-03T03:38:15;9.70;99.90
51021;DHT22;38907;45.562;8.856;2023-04-03T03:43:17;9.80;99.90
51021;DHT22;38907;45.562;8.856;2023-04-03T03:48:20;9.70;99.90
51021;DHT22;38907;45.562;8.856;2023-04-03T03:53:22;9.20;99.90
51021;DHT22;38907;45.562;8.856;2023-04-03T03:58:24;8.90;99.90
51021;DHT22;38907;45.562;8.856;2023-04-03T04:03:28;8.70;99.90
51021;DHT22;38907;45.562;8.856;2023-04-03T04:08:29;8.90;99.90
51021;DHT22;38907;45.562;8.856;2023-04-03T04:13:31;8.80;99.90
51021;DHT22;38907;45.562;8.856;2023-04-03T04:18:34;8.50;99.90
51021;DHT22;38907;45.562;8.856;2023-04-03T04:23:36;8.50;99.90
51021;DHT22;38907;45.562;8.856;2023-04-03T04:28:38;8.60;99.90
51021;DHT22;38907;45.562;8.856;2023-04-03T04:33:41;8.50;99.90
51021;DHT22;38907;45.562;8.856;2023-04-03T04:38:43;8.80;99.90
51021;DHT22;38907;45.562;8.856;2023-04-03T04:43:45;9.20;99.90
51021;DHT22;38907;45.562;8.856;2023-04-03T04:48:48;9.20;99.90
51021;DHT22;38907;45.562;8.856;2023-04-03T04:53:50;9.10;99.90
51021;DHT22;38907;45.562;8.856;2023-04-03T04:58:52;9.20;99.90
51021;DHT22;38907;45.562;8.856;2023-04-03T05:03:55;9.00;99.90
51021;DHT22;38907;45.562;8.856;2023-04-03T05:08:57;8.40;99.90
51021;DHT22;38907;45.562;8.856;2023-04-03T05:13:59;7.40;99.90
51021;DHT22;38907;45.562;8.856;2023-04-03T05:19:02;8.10;99.90
51021;DHT22;38907;45.562;8.856;2023-04-03T05:24:05;8.40;99.90
51021;DHT22;38907;45.562;8.856;2023-04-03T05:29:09;8.70;99.90
51021;DHT22;38907;45.562;8.856;2023-04-03T05:34:12;8.70;99.90
51021;DHT22;38907;45.562;8.856;2023-04-03T05:39:15;8.90;99.90
51021;DHT22;38907;45.562;8.856;2023-04-03T05:44:17;8.90;99.90
51021;DHT22;38907;45.562;8.856;2023-04-03T05:49:20;9.20;99.90
51021;DHT22;38907;45.562;8.856;2023-04-03T05:54:24;9.30;99.90
51021;DHT22;38907;45.562;8.856;2023-04-03T05:59:26;9.70;99.90
51021;DHT22;38907;45.562;8.856;2023-04-03T06:04:29;9.80;99.90
51021;DHT22;38907;45.562;8.856;2023-04-03T06:09:31;9.90;99.90
51021;DHT22;38907;45.562;8.856;2023-04-03T06:14:33;10.20;99.90
51021;DHT22;38907;45.562;8.856;2023-04-03T06:19:37;10.50;99.90
51021;DHT22;38907;45.562;8.856;2023-04-03T06:24:38;10.10;99.90
51021;DHT22;38907;45.562;8.856;2023-04-03T06:29:40;9.80;99.90
51021;DHT22;38907;45.562;8.856;2023-04-03T06:34:43;10.30;99.90
51021;DHT22;38907;45.562;8.856;2023-04-03T06:39:46;10.80;99.90
51021;DHT22;38907;45.562;8.856;2023-04-03T06:44:48;11.20;99.90
51021;DHT22;38907;45.562;8.856;2023-04-03T06:49:51;11.70;99.90
51021;DHT22;38907;45.562;8.856;2023-04-03T06:54:53;12.10;99.90
51021;DHT22;38907;45.562;8.856;2023-04-03T06:59:57;12.50;99.90
51021;DHT22;38907;45.562;8.856;2023-04-03T07:05:00;12.60;99.90
51021;DHT22;38907;45.562;8.856;2023-04-03T07:10:04;13.00;99.90
51021;DHT22;38907;45.562;8.856;2023-04-03T07:15:07;12.80;99.90
51021;DHT22;38907;45.562;8.856;2023-04-03T07:20:10;13.00;99.90
51021;DHT22;38907;45.562;8.856;2023-04-03T07:25:12;13.00;99.90
51021;DHT22;38907;45.562;8.856;2023-04-03T07:30:14;12.90;99.90
51021;DHT22;38907;45.562;8.856;2023-04-03T07:35:18;12.90;99.90
51021;DHT22;38907;45.562;8.856;2023-04-03T07:40:20;13.10;99.90
51021;DHT22;38907;45.562;8.856;2023-04-03T07:45:22;13.10;99.90
51021;DHT22;38907;45.562;8.856;2023-04-03T07:50:25;13.50;99.90
51021;DHT22;38907;45.562;8.856;2023-04-03T07:55:27;13.60;99.90
51021;DHT22;38907;45.562;8.856;2023-04-03T08:00:29;13.50;99.90
51021;DHT22;38907;45.562;8.856;2023-04-03T08:05:36;13.60;99.90
51021;DHT22;38907;45.562;8.856;2023-04-03T08:10:38;13.80;99.90
51021;DHT22;38907;45.562;8.856;2023-04-03T08:15:40;14.00;99.90
51021;DHT22;38907;45.562;8.856;2023-04-03T08:20:43;14.10;99.90
51021;DHT22;38907;45.562;8.856;2023-04-03T08:25:46;14.20;99.90
51021;DHT22;38907;45.562;8.856;2023-04-03T08:30:47;14.20;99.90
51021;DHT22;38907;45.562;8.856;2023-04-03T08:35:51;14.30;99.90
51021;DHT22;38907;45.562;8.856;2023-04-03T08:41:01;14.50;99.90
51021;DHT22;38907;45.562;8.856;2023-04-03T08:46:05;14.50;99.90
51021;DHT22;38907;45.562;8.856;2023-04-03T08:51:14;14.70;99.90
51021;DHT22;38907;45.562;8.856;2023-04-03T08:56:18;14.80;99.90
51021;DHT22;38907;45.562;8.856;2023-04-03T09:01:24;15.00;99.90
51021;DHT22;38907;45.562;8.856;2023-04-03T09:06:31;15.00;99.90
51021;DHT22;38907;45.562;8.856;2023-04-03T09:11:47;15.00;99.90
51021;DHT22;38907;45.562;8.856;2023-04-03T09:16:55;15.20;99.90
51021;DHT22;38907;45.562;8.856;2023-04-03T09:22:02;15.20;99.90
51021;DHT22;38907;45.562;8.856;2023-04-03T09:27:07;15.10;99.90
51021;DHT22;38907;45.562;8.856;2023-04-03T09:32:21;15.20;99.90
51021;DHT22;38907;45.562;8.856;2023-04-03T09:37:37;15.30;99.90
51021;DHT22;38907;45.562;8.856;2023-04-03T09:42:41;15.40;99.90
51021;DHT22;38907;45.562;8.856;2023-04-03T09:47:43;15.50;99.90
51021;DHT22;38907;45.562;8.856;2023-04-03T09:52:48;15.40;99.90
51021;DHT22;38907;45.562;8.856;2023-04-03T09:57:50;15.60;99.90
51021;DHT22;38907;45.562;8.856;2023-04-03T10:02:54;15.80;99.90
51021;DHT22;38907;45.562;8.856;2023-04-03T10:08:11;15.70;99.90
51021;DHT22;38907;45.562;8.856;2023-04-03T10:13:20;15.90;99.90
51021;DHT22;38907;45.562;8.856;2023-04-03T10:18:30;15.90;99.90
51021;DHT22;38907;45.562;8.856;2023-04-03T10:23:39;15.90;99.90
51021;DHT22;38907;45.562;8.856;2023-04-03T10:28:48;16.10;99.90
51021;DHT22;38907;45.562;8.856;2023-04-03T10:33:59;16.10;99.90
51021;DHT22;38907;45.562;8.856;2023-04-03T10:39:12;16.40;99.90
51021;DHT22;38907;45.562;8.856;2023-04-03T10:44:23;16.30;99.90
51021;DHT22;38907;45.562;8.856;2023-04-03T10:49:38;16.40;99.90
51021;DHT22;38907;45.562;8.856;2023-04-03T10:54:55;16.50;99.90
51021;DHT22;38907;45.562;8.856;2023-04-03T11:00:02;16.50;99.90
51021;DHT22;38907;45.562;8.856;2023-04-03T11:05:07;16.60;99.90
51021;DHT22;38907;45.562;8.856;2023-04-03T11:10:23;16.60;99.90
51021;DHT22;38907;45.562;8.856;2023-04-03T11:15:28;16.60;99.90
51021;DHT22;38907;45.562;8.856;2023-04-03T11:20:32;16.40;99.90
51021;DHT22;38907;45.562;8.856;2023-04-03T11:25:37;16.70;99.90
51021;DHT22;38907;45.562;8.856;2023-04-03T11:30:46;16.80;99.90
51021;DHT22;38907;45.562;8.856;2023-04-03T11:35:51;16.80;99.90
51021;DHT22;38907;45.562;8.856;2023-04-03T11:40:56;16.80;99.90
51021;DHT22;38907;45.562;8.856;2023-04-03T11:46:00;17.00;99.90
51021;DHT22;38907;45.562;8.856;2023-04-03T11:56:54;16.60;99.90
51021;DHT22;38907;45.562;8.856;2023-04-03T12:01:56;17.00;98.80
51021;DHT22;38907;45.562;8.856;2023-04-03T12:07:12;17.10;99.60
51021;DHT22;38907;45.562;8.856;2023-04-03T12:12:39;17.10;98.50
51021;DHT22;38907;45.562;8.856;2023-04-03T12:17:42;17.10;98.50
51021;DHT22;38907;45.562;8.856;2023-04-03T12:23:07;17.20;99.00
51021;DHT22;38907;45.562;8.856;2023-04-03T12:28:11;17.20;99.80
51021;DHT22;38907;45.562;8.856;2023-04-03T12:33:23;17.40;97.90
51021;DHT22;38907;45.562;8.856;2023-04-03T12:38:57;17.20;96.60
51021;DHT22;38907;45.562;8.856;2023-04-03T12:44:19;17.30;98.10
51021;DHT22;38907;45.562;8.856;2023-04-03T12:49:35;17.30;98.90
51021;DHT22;38907;45.562;8.856;2023-04-03T12:54:38;17.50;99.30
51021;DHT22;38907;45.562;8.856;2023-04-03T12:59:42;17.70;98.90
51021;DHT22;38907;45.562;8.856;2023-04-03T13:04:47;17.90;97.60
51021;DHT22;38907;45.562;8.856;2023-04-03T13:09:56;17.90;97.80
51021;DHT22;38907;45.562;8.856;2023-04-03T13:15:11;17.90;96.10
51021;DHT22;38907;45.562;8.856;2023-04-03T13:20:18;17.90;98.40
51021;DHT22;38907;45.562;8.856;2023-04-03T13:25:21;18.00;98.40
51021;DHT22;38907;45.562;8.856;2023-04-03T13:30:28;17.80;97.60
51021;DHT22;38907;45.562;8.856;2023-04-03T13:35:36;17.90;98.20
51021;DHT22;38907;45.562;8.856;2023-04-03T13:40:47;17.80;98.00
51021;DHT22;38907;45.562;8.856;2023-04-03T13:45:57;18.00;98.20
51021;DHT22;38907;45.562;8.856;2023-04-03T13:51:02;17.90;96.60
51021;DHT22;38907;45.562;8.856;2023-04-03T13:56:08;17.90;96.70
51021;DHT22;38907;45.562;8.856;2023-04-03T14:01:17;18.00;97.00
51021;DHT22;38907;45.562;8.856;2023-04-03T14:06:20;17.80;96.80
51021;DHT22;38907;45.562;8.856;2023-04-03T14:11:24;17.90;96.80
51021;DHT22;38907;45.562;8.856;2023-04-03T14:16:32;17.90;96.80
51021;DHT22;38907;45.562;8.856;2023-04-03T14:21:34;17.60;96.00
51021;DHT22;38907;45.562;8.856;2023-04-03T14:26:36;17.30;95.40
51021;DHT22;38907;45.562;8.856;2023-04-03T14:31:40;17.10;95.50
51021;DHT22;38907;45.562;8.856;2023-04-03T14:36:43;16.90;96.40
51021;DHT22;38907;45.562;8.856;2023-04-03T14:41:47;16.80;97.30
51021;DHT22;38907;45.562;8.856;2023-04-03T14:46:50;16.70;97.50
51021;DHT22;38907;45.562;8.856;2023-04-03T14:51:52;16.70;97.40
51021;DHT22;38907;45.562;8.856;2023-04-03T14:56:55;16.80;97.20
51021;DHT22;38907;45.562;8.856;2023-04-03T15:01:59;16.70;97.20
51021;DHT22;38907;45.562;8.856;2023-04-03T15:07:01;16.60;97.70
51021;DHT22;38907;45.562;8.856;2023-04-03T15:12:03;16.60;97.80
51021;DHT22;38907;45.562;8.856;2023-04-03T15:17:14;17.00;97.60
51021;DHT22;38907;45.562;8.856;2023-04-03T15:22:20;17.20;97.30
51021;DHT22;38907;45.562;8.856;2023-04-03T15:27:22;17.30;97.50
51021;DHT22;38907;45.562;8.856;2023-04-03T15:32:25;17.20;96.50
51021;DHT22;38907;45.562;8.856;2023-04-03T15:37:27;17.20;97.00
51021;DHT22;38907;45.562;8.856;2023-04-03T15:42:29;16.90;97.70
51021;DHT22;38907;45.562;8.856;2023-04-03T15:47:32;16.50;98.00
51021;DHT22;38907;45.562;8.856;2023-04-03T15:52:34;16.30;99.20
51021;DHT22;38907;45.562;8.856;2023-04-03T15:57:36;16.00;99.50
51021;DHT22;38907;45.562;8.856;2023-04-03T16:02:40;15.90;99.90
51021;DHT22;38907;45.562;8.856;2023-04-03T16:07:42;15.80;99.70
51021;DHT22;38907;45.562;8.856;2023-04-03T16:12:44;15.80;99.90
51021;DHT22;38907;45.562;8.856;2023-04-03T16:17:47;15.60;99.50
51021;DHT22;38907;45.562;8.856;2023-04-03T16:22:49;15.50;99.50
51021;DHT22;38907;45.562;8.856;2023-04-03T16:27:51;15.40;99.50
51021;DHT22;38907;45.562;8.856;2023-04-03T16:32:54;15.30;99.70
51021;DHT22;38907;45.562;8.856;2023-04-03T16:37:57;15.20;99.70
51021;DHT22;38907;45.562;8.856;2023-04-03T16:42:59;15.20;99.30
51021;DHT22;38907;45.562;8.856;2023-04-03T16:48:03;15.10;99.00
51021;DHT22;38907;45.562;8.856;2023-04-03T16:53:05;15.10;98.80
51021;DHT22;38907;45.562;8.856;2023-04-03T16:58:09;15.10;98.80
51021;DHT22;38907;45.562;8.856;2023-04-03T17:03:13;15.10;98.60
51021;DHT22;38907;45.562;8.856;2023-04-03T17:08:15;15.00;98.60
51021;DHT22;38907;45.562;8.856;2023-04-03T17:13:19;14.90;98.50
51021;DHT22;38907;45.562;8.856;2023-04-03T17:18:23;14.90;98.60
51021;DHT22;38907;45.562;8.856;2023-04-03T17:23:26;14.70;98.80
51021;DHT22;38907;45.562;8.856;2023-04-03T17:28:29;14.60;98.90
51021;DHT22;38907;45.562;8.856;2023-04-03T17:33:33;14.60;99.30
51021;DHT22;38907;45.562;8.856;2023-04-03T17:38:35;14.40;99.30
51021;DHT22;38907;45.562;8.856;2023-04-03T17:43:37;14.30;98.90
51021;DHT22;38907;45.562;8.856;2023-04-03T17:48:40;14.10;98.60
51021;DHT22;38907;45.562;8.856;2023-04-03T17:53:42;14.00;98.40
51021;DHT22;38907;45.562;8.856;2023-04-03T17:58:48;13.90;98.40
51021;DHT22;38907;45.562;8.856;2023-04-03T18:03:54;13.80;98.50
51021;DHT22;38907;45.562;8.856;2023-04-03T18:09:02;13.90;98.50
51021;DHT22;38907;45.562;8.856;2023-04-03T18:14:06;13.80;98.50
51021;DHT22;38907;45.562;8.856;2023-04-03T18:19:09;13.70;98.20
51021;DHT22;38907;45.562;8.856;2023-04-03T18:24:14;13.70;98.10
51021;DHT22;38907;45.562;8.856;2023-04-03T18:29:16;13.70;98.00
51021;DHT22;38907;45.562;8.856;2023-04-03T18:34:20;13.60;98.20
51021;DHT22;38907;45.562;8.856;2023-04-03T18:39:22;13.50;97.60
51021;DHT22;38907;45.562;8.856;2023-04-03T18:44:24;13.40;97.80
51021;DHT22;38907;45.562;8.856;2023-04-03T18:49:30;13.30;98.00
51021;DHT22;38907;45.562;8.856;2023-04-03T18:54:33;13.40;97.70
51021;DHT22;38907;45.562;8.856;2023-04-03T18:59:36;13.30;97.50
51021;DHT22;38907;45.562;8.856;2023-04-03T19:04:40;13.20;97.70
51021;DHT22;38907;45.562;8.856;2023-04-03T19:09:48;13.20;97.50
51021;DHT22;38907;45.562;8.856;2023-04-03T19:14:50;13.10;97.30
51021;DHT22;38907;45.562;8.856;2023-04-03T19:19:53;13.00;97.20
51021;DHT22;38907;45.562;8.856;2023-04-03T19:24:55;13.00;97.40
51021;DHT22;38907;45.562;8.856;2023-04-03T19:29:57;12.90;97.60
51021;DHT22;38907;45.562;8.856;2023-04-03T19:35:00;13.00;97.40
51021;DHT22;38907;45.562;8.856;2023-04-03T19:40:03;12.90;97.70
51021;DHT22;38907;45.562;8.856;2023-04-03T19:45:25;12.80;97.40
51021;DHT22;38907;45.562;8.856;2023-04-03T19:50:37;12.80;97.20
51021;DHT22;38907;45.562;8.856;2023-04-03T19:55:46;12.70;97.10
51021;DHT22;38907;45.562;8.856;2023-04-03T20:00:59;12.60;96.90
51021;DHT22;38907;45.562;8.856;2023-04-03T20:06:09;12.70;96.50
51021;DHT22;38907;45.562;8.856;2023-04-03T20:11:15;12.50;96.00
51021;DHT22;38907;45.562;8.856;2023-04-03T20:16:21;12.50;95.90
51021;DHT22;38907;45.562;8.856;2023-04-03T20:21:33;12.50;96.00
51021;DHT22;38907;45.562;8.856;2023-04-03T20:26:45;12.40;95.80
51021;DHT22;38907;45.562;8.856;2023-04-03T20:31:48;12.60;95.30
51021;DHT22;38907;45.562;8.856;2023-04-03T20:36:54;12.40;95.40
51021;DHT22;38907;45.562;8.856;2023-04-03T20:41:56;12.50;95.10
51021;DHT22;38907;45.562;8.856;2023-04-03T20:46:58;12.30;95.20
51021;DHT22;38907;45.562;8.856;2023-04-03T20:52:01;12.30;95.10
51021;DHT22;38907;45.562;8.856;2023-04-03T20:57:04;12.40;94.80
51021;DHT22;38907;45.562;8.856;2023-04-03T21:02:05;12.30;94.70
51021;DHT22;38907;45.562;8.856;2023-04-03T21:23:50;12.50;93.90
51021;DHT22;38907;45.562;8.856;2023-04-03T21:28:53;12.40;93.80
51021;DHT22;38907;45.562;8.856;2023-04-03T21:33:56;12.20;93.00
51021;DHT22;38907;45.562;8.856;2023-04-03T21:39:00;12.10;93.10
51021;DHT22;38907;45.562;8.856;2023-04-03T21:44:01;12.10;92.90
51021;DHT22;38907;45.562;8.856;2023-04-03T21:49:05;12.00;92.80
51021;DHT22;38907;45.562;8.856;2023-04-03T21:54:07;11.90;91.90
51021;DHT22;38907;45.562;8.856;2023-04-03T21:59:09;11.90;92.10
51021;DHT22;38907;45.562;8.856;2023-04-03T22:04:12;12.00;92.10
51021;DHT22;38907;45.562;8.856;2023-04-03T22:09:15;12.00;91.90
51021;DHT22;38907;45.562;8.856;2023-04-03T22:14:16;11.90;92.10
51021;DHT22;38907;45.562;8.856;2023-04-03T22:19:20;11.90;91.90
51021;DHT22;38907;45.562;8.856;2023-04-03T22:24:22;11.90;92.10
51021;DHT22;38907;45.562;8.856;2023-04-03T22:29:24;11.70;92.20
51021;DHT22;38907;45.562;8.856;2023-04-03T22:34:28;11.70;92.10
51021;DHT22;38907;45.562;8.856;2023-04-03T22:39:30;11.70;92.10
51021;DHT22;38907;45.562;8.856;2023-04-03T22:44:32;11.70;92.40
51021;DHT22;38907;45.562;8.856;2023-04-03T22:49:35;11.40;92.40
51021;DHT22;38907;45.562;8.856;2023-04-03T22:54:37;11.60;92.40
51021;DHT22;38907;45.562;8.856;2023-04-03T22:59:39;11.70;92.40
51021;DHT22;38907;45.562;8.856;2023-04-03T23:04:42;11.60;92.60
51021;DHT22;38907;45.562;8.856;2023-04-03T23:09:44;11.40;92.60
51021;DHT22;38907;45.562;8.856;2023-04-03T23:14:46;11.20;92.80
51021;DHT22;38907;45.562;8.856;2023-04-03T23:19:49;11.40;92.70
51021;DHT22;38907;45.562;8.856;2023-04-03T23:24:51;11.40;92.80
51021;DHT22;38907;45.562;8.856;2023-04-03T23:29:53;11.30;92.80
51021;DHT22;38907;45.562;8.856;2023-04-03T23:34:57;11.00;92.90
51021;DHT22;38907;45.562;8.856;2023-04-03T23:39:59;11.10;93.30
51021;DHT22;38907;45.562;8.856;2023-04-03T23:45:01;11.00;93.20
51021;DHT22;38907;45.562;8.856;2023-04-03T23:50:06;11.00;93.40
51021;DHT22;38907;45.562;8.856;2023-04-03T23:55:08;10.90;93.60
